sensor_id;sensor_type;location;lat;lon;timestamp;pressure;altitude;pressure_sealevel;temperature;humidity
10652;BME280;5374;42.742;23.266;2023-06-24T00:00:36;95421.25;;;22.88;99.60
10652;BME280;5374;42.742;23.266;2023-06-24T00:03:25;95418.97;;;22.69;100.00
10652;BME280;5374;42.742;23.266;2023-06-24T00:06:13;95413.84;;;22.76;100.00
10652;BME280;5374;42.742;23.266;2023-06-24T00:09:03;95418.63;;;22.79;99.67
10652;BME280;5374;42.742;23.266;2023-06-24T00:11:51;95410.03;;;22.77;99.37
10652;BME280;5374;42.742;23.266;2023-06-24T00:14:38;95410.97;;;22.81;100.00
10652;BME280;5374;42.742;23.266;2023-06-24T00:17:25;95412.25;;;22.75;100.00
10652;BME280;5374;42.742;23.266;2023-06-24T00:20:13;95417.97;;;22.74;100.00
10652;BME280;5374;42.742;23.266;2023-06-24T00:23:05;95416.25;;;22.69;100.00
10652;BME280;5374;42.742;23.266;2023-06-24T00:25:53;95407.03;;;22.62;100.00
10652;BME280;5374;42.742;23.266;2023-06-24T00:28:41;95388.03;;;22.49;100.00
10652;BME280;5374;42.742;23.266;2023-06-24T00:31:28;95402.03;;;22.51;100.00
10652;BME280;5374;42.742;23.266;2023-06-24T00:34:15;95410.50;;;22.41;100.00
10652;BME280;5374;42.742;23.266;2023-06-24T00:37:05;95415.25;;;22.44;100.00
10652;BME280;5374;42.742;23.266;2023-06-24T00:39:54;95412.25;;;22.37;100.00
10652;BME280;5374;42.742;23.266;2023-06-24T00:42:41;95415.81;;;22.29;100.00
10652;BME280;5374;42.742;23.266;2023-06-24T00:45:30;95405.19;;;22.15;100.00
10652;BME280;5374;42.742;23.266;2023-06-24T00:48:18;95404.84;;;22.17;100.00
10652;BME280;5374;42.742;23.266;2023-06-24T00:51:05;95402.63;;;22.19;100.00
10652;BME280;5374;42.742;23.266;2023-06-24T00:53:53;95395.81;;;22.13;100.00
10652;BME280;5374;42.742;23.266;2023-06-24T00:56:41;95393.75;;;22.10;100.00
10652;BME280;5374;42.742;23.266;2023-06-24T00:59:29;95394.25;;;22.03;100.00
10652;BME280;5374;42.742;23.266;2023-06-24T01:02:17;95402.81;;;21.97;100.00
10652;BME280;5374;42.742;23.266;2023-06-24T01:05:05;95392.38;;;21.87;100.00
10652;BME280;5374;42.742;23.266;2023-06-24T01:07:54;95382.19;;;21.83;100.00
10652;BME280;5374;42.742;23.266;2023-06-24T01:10:42;95378.72;;;21.74;100.00
10652;BME280;5374;42.742;23.266;2023-06-24T01:13:31;95382.84;;;21.72;100.00
10652;BME280;5374;42.742;23.266;2023-06-24T01:16:24;95389.25;;;21.67;100.00
10652;BME280;5374;42.742;23.266;2023-06-24T01:19:28;95380.66;;;21.65;100.00
10652;BME280;5374;42.742;23.266;2023-06-24T01:22:35;95374.94;;;21.58;100.00
10652;BME280;5374;42.742;23.266;2023-06-24T01:25:37;95370.81;;;21.52;100.00
10652;BME280;5374;42.742;23.266;2023-06-24T01:28:46;95392.91;;;21.54;100.00
10652;BME280;5374;42.742;23.266;2023-06-24T01:31:46;95401.47;;;21.47;100.00
10652;BME280;5374;42.742;23.266;2023-06-24T01:34:37;95407.38;;;21.41;100.00
10652;BME280;5374;42.742;23.266;2023-06-24T01:37:34;95408.81;;;21.38;100.00
10652;BME280;5374;42.742;23.266;2023-06-24T01:40:27;95416.91;;;21.30;100.00
10652;BME280;5374;42.742;23.266;2023-06-24T01:43:15;95417.22;;;21.20;100.00
10652;BME280;5374;42.742;23.266;2023-06-24T01:46:06;95427.84;;;21.16;100.00
10652;BME280;5374;42.742;23.266;2023-06-24T01:48:59;95415.59;;;21.01;100.00
10652;BME280;5374;42.742;23.266;2023-06-24T01:51:48;95426.56;;;21.05;100.00
10652;BME280;5374;42.742;23.266;2023-06-24T01:54:38;95413.22;;;21.00;100.00
10652;BME280;5374;42.742;23.266;2023-06-24T01:57:27;95423.53;;;21.06;100.00
10652;BME280;5374;42.742;23.266;2023-06-24T02:00:17;95435.78;;;20.95;100.00
10652;BME280;5374;42.742;23.266;2023-06-24T02:03:06;95431.00;;;20.92;100.00
10652;BME280;5374;42.742;23.266;2023-06-24T02:05:56;95451.16;;;21.03;100.00
10652;BME280;5374;42.742;23.266;2023-06-24T02:08:45;95435.59;;;20.92;100.00
10652;BME280;5374;42.742;23.266;2023-06-24T02:11:35;95437.97;;;20.85;100.00
10652;BME280;5374;42.742;23.266;2023-06-24T02:14:25;95450.03;;;20.87;100.00
10652;BME280;5374;42.742;23.266;2023-06-24T02:17:14;95456.69;;;20.81;100.00
10652;BME280;5374;42.742;23.266;2023-06-24T02:20:02;95426.16;;;20.55;100.00
10652;BME280;5374;42.742;23.266;2023-06-24T02:22:53;95461.41;;;20.67;100.00
10652;BME280;5374;42.742;23.266;2023-06-24T02:25:42;95463.63;;;20.65;100.00
10652;BME280;5374;42.742;23.266;2023-06-24T02:28:30;95462.66;;;20.61;100.00
10652;BME280;5374;42.742;23.266;2023-06-24T02:31:18;95439.13;;;20.44;100.00
10652;BME280;5374;42.742;23.266;2023-06-24T02:34:05;95465.53;;;20.56;100.00
10652;BME280;5374;42.742;23.266;2023-06-24T02:36:52;95467.84;;;20.48;100.00
10652;BME280;5374;42.742;23.266;2023-06-24T02:39:41;95449.34;;;20.33;100.00
10652;BME280;5374;42.742;23.266;2023-06-24T02:42:29;95478.47;;;20.45;100.00
10652;BME280;5374;42.742;23.266;2023-06-24T02:45:17;95469.72;;;20.39;100.00
10652;BME280;5374;42.742;23.266;2023-06-24T02:48:05;95459.66;;;20.31;100.00
10652;BME280;5374;42.742;23.266;2023-06-24T02:50:53;95470.31;;;20.36;100.00
10652;BME280;5374;42.742;23.266;2023-06-24T02:53:41;95470.59;;;20.26;100.00
10652;BME280;5374;42.742;23.266;2023-06-24T02:56:30;95496.06;;;20.42;100.00
10652;BME280;5374;42.742;23.266;2023-06-24T02:59:18;95491.47;;;20.43;100.00
10652;BME280;5374;42.742;23.266;2023-06-24T03:02:08;95489.75;;;20.47;100.00
10652;BME280;5374;42.742;23.266;2023-06-24T03:04:56;95488.66;;;20.48;100.00
10652;BME280;5374;42.742;23.266;2023-06-24T03:07:44;95488.81;;;20.52;100.00
10652;BME280;5374;42.742;23.266;2023-06-24T03:10:32;95489.31;;;20.54;100.00
10652;BME280;5374;42.742;23.266;2023-06-24T03:13:20;95487.75;;;20.61;100.00
10652;BME280;5374;42.742;23.266;2023-06-24T03:16:07;95486.63;;;20.62;100.00
10652;BME280;5374;42.742;23.266;2023-06-24T03:18:57;95486.50;;;20.67;100.00
10652;BME280;5374;42.742;23.266;2023-06-24T03:21:44;95486.84;;;20.74;100.00
10652;BME280;5374;42.742;23.266;2023-06-24T03:24:32;95487.97;;;20.82;100.00
10652;BME280;5374;42.742;23.266;2023-06-24T03:27:19;95492.75;;;20.85;100.00
10652;BME280;5374;42.742;23.266;2023-06-24T03:30:10;95505.81;;;21.00;100.00
10652;BME280;5374;42.742;23.266;2023-06-24T03:32:58;95505.19;;;21.12;100.00
10652;BME280;5374;42.742;23.266;2023-06-24T03:35:45;95505.25;;;21.29;100.00
10652;BME280;5374;42.742;23.266;2023-06-24T03:38:32;95514.03;;;21.52;100.00
10652;BME280;5374;42.742;23.266;2023-06-24T03:41:19;95513.84;;;21.92;100.00
10652;BME280;5374;42.742;23.266;2023-06-24T03:44:06;95513.31;;;22.50;100.00
10652;BME280;5374;42.742;23.266;2023-06-24T03:46:54;95506.91;;;23.01;100.00
10652;BME280;5374;42.742;23.266;2023-06-24T03:49:42;95510.03;;;23.41;100.00
10652;BME280;5374;42.742;23.266;2023-06-24T03:52:29;95531.09;;;23.86;100.00
10652;BME280;5374;42.742;23.266;2023-06-24T03:55:16;95531.09;;;24.19;100.00
10652;BME280;5374;42.742;23.266;2023-06-24T03:58:03;95523.19;;;24.47;98.52
10652;BME280;5374;42.742;23.266;2023-06-24T04:00:50;95532.56;;;24.82;89.72
10652;BME280;5374;42.742;23.266;2023-06-24T04:03:38;95542.56;;;25.03;86.76
10652;BME280;5374;42.742;23.266;2023-06-24T04:06:26;95544.69;;;25.34;83.74
10652;BME280;5374;42.742;23.266;2023-06-24T04:09:13;95532.66;;;25.59;80.15
10652;BME280;5374;42.742;23.266;2023-06-24T04:12:00;95524.13;;;25.85;76.33
10652;BME280;5374;42.742;23.266;2023-06-24T04:14:47;95520.38;;;25.77;75.92
10652;BME280;5374;42.742;23.266;2023-06-24T04:17:34;95518.13;;;25.79;75.78
10652;BME280;5374;42.742;23.266;2023-06-24T04:20:23;95520.81;;;26.19;74.13
10652;BME280;5374;42.742;23.266;2023-06-24T04:23:10;95517.22;;;26.43;71.86
10652;BME280;5374;42.742;23.266;2023-06-24T04:25:59;95510.66;;;26.76;69.65
10652;BME280;5374;42.742;23.266;2023-06-24T04:28:47;95515.22;;;27.19;68.71
10652;BME280;5374;42.742;23.266;2023-06-24T04:31:34;95499.97;;;27.49;65.40
10652;BME280;5374;42.742;23.266;2023-06-24T04:34:21;95512.44;;;27.85;64.03
10652;BME280;5374;42.742;23.266;2023-06-24T04:37:09;95522.66;;;28.27;63.76
10652;BME280;5374;42.742;23.266;2023-06-24T04:39:57;95521.78;;;28.62;61.08
10652;BME280;5374;42.742;23.266;2023-06-24T04:42:44;95504.25;;;28.85;60.05
10652;BME280;5374;42.742;23.266;2023-06-24T04:45:32;95532.28;;;29.28;58.81
10652;BME280;5374;42.742;23.266;2023-06-24T04:48:23;95514.69;;;29.52;57.20
10652;BME280;5374;42.742;23.266;2023-06-24T04:51:10;95519.84;;;29.87;55.91
10652;BME280;5374;42.742;23.266;2023-06-24T04:53:59;95515.16;;;30.14;55.79
10652;BME280;5374;42.742;23.266;2023-06-24T04:56:46;95531.97;;;30.83;53.24
10652;BME280;5374;42.742;23.266;2023-06-24T04:59:35;95501.72;;;31.71;50.48
10652;BME280;5374;42.742;23.266;2023-06-24T05:02:24;95517.47;;;32.93;46.86
10652;BME280;5374;42.742;23.266;2023-06-24T05:05:11;95539.00;;;34.19;43.80
10652;BME280;5374;42.742;23.266;2023-06-24T05:07:58;95536.16;;;35.13;41.08
10652;BME280;5374;42.742;23.266;2023-06-24T05:10:47;95533.03;;;35.56;40.79
10652;BME280;5374;42.742;23.266;2023-06-24T05:13:34;95541.16;;;36.15;39.20
10652;BME280;5374;42.742;23.266;2023-06-24T05:16:21;95539.72;;;35.10;39.93
10652;BME280;5374;42.742;23.266;2023-06-24T05:19:10;95540.09;;;35.64;39.27
10652;BME280;5374;42.742;23.266;2023-06-24T05:21:57;95538.91;;;35.65;38.74
10652;BME280;5374;42.742;23.266;2023-06-24T05:24:44;95525.00;;;34.61;39.81
10652;BME280;5374;42.742;23.266;2023-06-24T05:27:33;95536.19;;;35.06;39.87
10652;BME280;5374;42.742;23.266;2023-06-24T05:30:20;95537.50;;;34.91;40.52
10652;BME280;5374;42.742;23.266;2023-06-24T05:33:07;95532.88;;;35.25;40.19
10652;BME280;5374;42.742;23.266;2023-06-24T05:35:54;95516.22;;;34.84;nan
10652;BME280;5374;42.742;23.266;2023-06-24T05:38:42;95532.47;;;34.79;40.48
10652;BME280;5374;42.742;23.266;2023-06-24T05:41:29;95543.06;;;34.80;41.25
10652;BME280;5374;42.742;23.266;2023-06-24T05:44:18;95535.91;;;34.90;40.73
10652;BME280;5374;42.742;23.266;2023-06-24T05:47:05;95507.09;;;34.94;40.68
10652;BME280;5374;42.742;23.266;2023-06-24T05:49:52;95522.34;;;35.10;40.43
10652;BME280;5374;42.742;23.266;2023-06-24T05:52:42;95521.69;;;34.95;39.70
10652;BME280;5374;42.742;23.266;2023-06-24T05:55:29;95512.09;;;35.10;40.24
10652;BME280;5374;42.742;23.266;2023-06-24T05:58:16;95522.34;;;35.13;39.60
10652;BME280;5374;42.742;23.266;2023-06-24T06:01:05;95515.19;;;35.19;39.94
10652;BME280;5374;42.742;23.266;2023-06-24T06:03:52;95509.66;;;35.19;39.42
10652;BME280;5374;42.742;23.266;2023-06-24T06:06:39;95513.00;;;35.00;40.48
10652;BME280;5374;42.742;23.266;2023-06-24T06:09:27;95505.53;;;34.93;39.85
10652;BME280;5374;42.742;23.266;2023-06-24T06:12:17;95509.16;;;34.80;39.97
10652;BME280;5374;42.742;23.266;2023-06-24T06:15:05;95517.13;;;34.63;39.78
10652;BME280;5374;42.742;23.266;2023-06-24T06:17:53;95511.16;;;34.79;40.28
10652;BME280;5374;42.742;23.266;2023-06-24T06:20:41;95510.38;;;34.79;41.05
10652;BME280;5374;42.742;23.266;2023-06-24T06:23:28;95520.09;;;34.97;41.40
10652;BME280;5374;42.742;23.266;2023-06-24T06:26:15;95523.94;;;35.11;39.22
10652;BME280;5374;42.742;23.266;2023-06-24T06:29:03;95514.38;;;35.22;39.94
10652;BME280;5374;42.742;23.266;2023-06-24T06:31:53;95502.81;;;35.42;40.23
10652;BME280;5374;42.742;23.266;2023-06-24T06:34:44;95505.25;;;35.70;39.34
10652;BME280;5374;42.742;23.266;2023-06-24T06:37:31;95516.06;;;35.57;38.85
10652;BME280;5374;42.742;23.266;2023-06-24T06:40:18;95510.06;;;35.66;38.75
10652;BME280;5374;42.742;23.266;2023-06-24T06:43:06;95515.47;;;35.80;38.09
10652;BME280;5374;42.742;23.266;2023-06-24T06:45:53;95503.44;;;35.94;37.53
10652;BME280;5374;42.742;23.266;2023-06-24T06:48:45;95523.59;;;35.94;37.38
10652;BME280;5374;42.742;23.266;2023-06-24T06:51:34;95515.47;;;35.80;38.51
10652;BME280;5374;42.742;23.266;2023-06-24T06:54:22;95477.09;;;35.86;37.99
10652;BME280;5374;42.742;23.266;2023-06-24T06:57:09;95522.84;;;36.28;36.00
10652;BME280;5374;42.742;23.266;2023-06-24T06:59:56;95523.41;;;36.12;37.10
10652;BME280;5374;42.742;23.266;2023-06-24T07:02:43;95480.66;;;35.86;37.21
10652;BME280;5374;42.742;23.266;2023-06-24T07:05:31;95500.25;;;35.99;38.50
10652;BME280;5374;42.742;23.266;2023-06-24T07:08:19;95513.53;;;36.11;37.93
10652;BME280;5374;42.742;23.266;2023-06-24T07:11:06;95515.56;;;36.41;35.65
10652;BME280;5374;42.742;23.266;2023-06-24T07:13:54;95515.47;;;36.48;35.93
10652;BME280;5374;42.742;23.266;2023-06-24T07:16:41;95521.53;;;36.67;36.27
10652;BME280;5374;42.742;23.266;2023-06-24T07:19:28;95513.81;;;36.54;36.50
10652;BME280;5374;42.742;23.266;2023-06-24T07:22:15;95504.31;;;36.55;36.83
10652;BME280;5374;42.742;23.266;2023-06-24T07:25:04;95504.97;;;36.63;36.82
10652;BME280;5374;42.742;23.266;2023-06-24T07:27:51;95503.13;;;36.83;34.68
10652;BME280;5374;42.742;23.266;2023-06-24T07:30:38;95511.19;;;36.71;35.78
10652;BME280;5374;42.742;23.266;2023-06-24T07:33:25;95510.22;;;36.84;36.36
10652;BME280;5374;42.742;23.266;2023-06-24T07:36:12;95516.44;;;36.92;36.31
10652;BME280;5374;42.742;23.266;2023-06-24T07:39:00;95509.63;;;36.70;35.29
10652;BME280;5374;42.742;23.266;2023-06-24T07:41:48;95508.75;;;36.80;34.62
10652;BME280;5374;42.742;23.266;2023-06-24T07:44:36;95504.91;;;36.40;36.12
10652;BME280;5374;42.742;23.266;2023-06-24T07:47:25;95510.66;;;36.83;35.77
10652;BME280;5374;42.742;23.266;2023-06-24T07:50:12;95506.72;;;37.07;36.08
10652;BME280;5374;42.742;23.266;2023-06-24T07:52:59;95509.72;;;36.93;35.31
10652;BME280;5374;42.742;23.266;2023-06-24T07:55:48;95499.88;;;36.31;36.94
10652;BME280;5374;42.742;23.266;2023-06-24T07:58:36;95514.19;;;36.26;36.02
10652;BME280;5374;42.742;23.266;2023-06-24T08:01:24;95510.00;;;36.41;37.01
10652;BME280;5374;42.742;23.266;2023-06-24T08:04:11;95517.41;;;36.82;35.05
10652;BME280;5374;42.742;23.266;2023-06-24T08:06:58;95496.25;;;36.64;36.80
10652;BME280;5374;42.742;23.266;2023-06-24T08:09:45;95498.03;;;36.82;36.50
10652;BME280;5374;42.742;23.266;2023-06-24T08:12:32;95519.06;;;35.25;37.81
10652;BME280;5374;42.742;23.266;2023-06-24T08:15:21;95507.47;;;35.89;37.66
10652;BME280;5374;42.742;23.266;2023-06-24T08:18:08;95503.47;;;36.28;37.79
10652;BME280;5374;42.742;23.266;2023-06-24T08:20:56;95503.94;;;36.53;37.47
10652;BME280;5374;42.742;23.266;2023-06-24T08:23:46;95479.78;;;36.57;35.23
10652;BME280;5374;42.742;23.266;2023-06-24T08:26:36;95486.28;;;36.74;35.44
10652;BME280;5374;42.742;23.266;2023-06-24T08:29:24;95481.72;;;36.87;36.85
10652;BME280;5374;42.742;23.266;2023-06-24T08:32:12;95493.69;;;36.81;35.75
10652;BME280;5374;42.742;23.266;2023-06-24T08:34:59;95485.13;;;36.68;37.72
10652;BME280;5374;42.742;23.266;2023-06-24T08:37:47;95489.97;;;36.60;37.08
10652;BME280;5374;42.742;23.266;2023-06-24T08:40:34;95473.78;;;36.32;37.09
10652;BME280;5374;42.742;23.266;2023-06-24T08:43:21;95480.25;;;35.47;38.27
10652;BME280;5374;42.742;23.266;2023-06-24T08:46:08;95470.59;;;35.66;39.07
10652;BME280;5374;42.742;23.266;2023-06-24T08:49:02;95472.59;;;35.17;39.04
10652;BME280;5374;42.742;23.266;2023-06-24T08:51:55;95474.56;;;34.64;41.66
10652;BME280;5374;42.742;23.266;2023-06-24T08:54:46;95470.28;;;35.12;39.34
10652;BME280;5374;42.742;23.266;2023-06-24T08:57:36;95476.75;;;35.43;38.89
10652;BME280;5374;42.742;23.266;2023-06-24T09:00:23;95469.41;;;35.67;38.31
10652;BME280;5374;42.742;23.266;2023-06-24T09:03:10;95468.56;;;35.70;37.77
10652;BME280;5374;42.742;23.266;2023-06-24T09:05:59;95470.44;;;35.80;40.12
10652;BME280;5374;42.742;23.266;2023-06-24T09:08:53;95449.94;;;35.74;38.62
10652;BME280;5374;42.742;23.266;2023-06-24T09:11:40;95457.00;;;35.82;38.98
10652;BME280;5374;42.742;23.266;2023-06-24T09:14:29;95464.06;;;35.86;37.92
10652;BME280;5374;42.742;23.266;2023-06-24T09:17:18;95454.53;;;35.91;39.52
10652;BME280;5374;42.742;23.266;2023-06-24T09:20:08;95462.47;;;35.89;38.34
10652;BME280;5374;42.742;23.266;2023-06-24T09:23:02;95460.19;;;36.14;39.40
10652;BME280;5374;42.742;23.266;2023-06-24T09:25:55;95455.31;;;35.91;37.56
10652;BME280;5374;42.742;23.266;2023-06-24T09:28:47;95466.00;;;36.20;37.68
10652;BME280;5374;42.742;23.266;2023-06-24T09:31:35;95463.56;;;36.29;36.73
10652;BME280;5374;42.742;23.266;2023-06-24T09:34:22;95461.44;;;36.06;36.86
10652;BME280;5374;42.742;23.266;2023-06-24T09:37:09;95453.59;;;36.01;37.53
10652;BME280;5374;42.742;23.266;2023-06-24T09:39:58;95462.88;;;36.18;38.43
10652;BME280;5374;42.742;23.266;2023-06-24T09:42:51;95463.63;;;35.91;38.13
10652;BME280;5374;42.742;23.266;2023-06-24T09:45:39;95462.72;;;35.64;38.94
10652;BME280;5374;42.742;23.266;2023-06-24T09:48:30;95461.69;;;35.88;39.27
10652;BME280;5374;42.742;23.266;2023-06-24T09:51:17;95454.56;;;35.87;37.38
10652;BME280;5374;42.742;23.266;2023-06-24T09:54:05;95468.13;;;35.71;37.43
10652;BME280;5374;42.742;23.266;2023-06-24T09:56:59;95453.44;;;35.44;40.28
10652;BME280;5374;42.742;23.266;2023-06-24T09:59:46;95456.28;;;35.37;38.07
10652;BME280;5374;42.742;23.266;2023-06-24T10:02:35;95444.03;;;35.38;37.90
10652;BME280;5374;42.742;23.266;2023-06-24T10:05:22;95428.97;;;35.46;37.57
10652;BME280;5374;42.742;23.266;2023-06-24T10:08:10;95435.97;;;35.13;40.36
10652;BME280;5374;42.742;23.266;2023-06-24T10:10:58;95432.72;;;35.21;40.05
10652;BME280;5374;42.742;23.266;2023-06-24T10:13:47;95429.22;;;35.17;38.64
10652;BME280;5374;42.742;23.266;2023-06-24T10:16:35;95429.16;;;35.24;38.31
10652;BME280;5374;42.742;23.266;2023-06-24T10:19:23;95423.50;;;34.94;38.56
10652;BME280;5374;42.742;23.266;2023-06-24T10:22:11;95420.69;;;35.01;37.77
10652;BME280;5374;42.742;23.266;2023-06-24T10:25:00;95413.53;;;35.07;37.19
10652;BME280;5374;42.742;23.266;2023-06-24T10:27:50;95414.28;;;35.11;37.07
10652;BME280;5374;42.742;23.266;2023-06-24T10:30:54;95405.13;;;35.21;37.69
10652;BME280;5374;42.742;23.266;2023-06-24T10:33:41;95401.56;;;35.21;37.62
10652;BME280;5374;42.742;23.266;2023-06-24T10:36:31;95401.63;;;35.14;37.10
10652;BME280;5374;42.742;23.266;2023-06-24T10:39:42;95386.22;;;35.16;37.35
10652;BME280;5374;42.742;23.266;2023-06-24T10:42:33;95364.63;;;35.04;37.21
10652;BME280;5374;42.742;23.266;2023-06-24T10:45:22;95362.78;;;34.94;37.71
10652;BME280;5374;42.742;23.266;2023-06-24T10:48:11;95379.06;;;34.19;38.59
10652;BME280;5374;42.742;23.266;2023-06-24T10:50:58;95366.59;;;34.59;37.38
10652;BME280;5374;42.742;23.266;2023-06-24T10:53:46;95362.66;;;34.60;37.87
10652;BME280;5374;42.742;23.266;2023-06-24T10:56:33;95348.69;;;34.33;40.58
10652;BME280;5374;42.742;23.266;2023-06-24T10:59:20;95353.38;;;34.36;40.44
10652;BME280;5374;42.742;23.266;2023-06-24T11:02:08;95342.63;;;34.52;38.26
10652;BME280;5374;42.742;23.266;2023-06-24T11:04:58;95335.06;;;34.60;40.02
10652;BME280;5374;42.742;23.266;2023-06-24T11:07:45;95349.13;;;34.76;40.17
10652;BME280;5374;42.742;23.266;2023-06-24T11:10:32;95354.28;;;34.71;38.43
10652;BME280;5374;42.742;23.266;2023-06-24T11:13:20;95359.00;;;34.74;37.92
10652;BME280;5374;42.742;23.266;2023-06-24T11:16:07;95347.94;;;34.77;34.85
10652;BME280;5374;42.742;23.266;2023-06-24T11:18:54;95364.84;;;34.83;35.90
10652;BME280;5374;42.742;23.266;2023-06-24T11:21:43;95358.53;;;34.82;35.75
10652;BME280;5374;42.742;23.266;2023-06-24T11:24:31;95345.47;;;34.90;36.49
10652;BME280;5374;42.742;23.266;2023-06-24T11:27:24;95335.94;;;34.98;36.21
10652;BME280;5374;42.742;23.266;2023-06-24T11:30:13;95344.22;;;34.98;35.31
10652;BME280;5374;42.742;23.266;2023-06-24T11:33:00;95340.31;;;34.92;36.95
10652;BME280;5374;42.742;23.266;2023-06-24T11:35:48;95347.59;;;35.13;35.05
10652;BME280;5374;42.742;23.266;2023-06-24T11:38:37;95331.44;;;35.11;34.90
10652;BME280;5374;42.742;23.266;2023-06-24T11:41:28;95333.25;;;35.25;35.86
10652;BME280;5374;42.742;23.266;2023-06-24T11:44:17;95326.53;;;35.26;34.63
10652;BME280;5374;42.742;23.266;2023-06-24T11:47:07;95337.56;;;35.29;35.20
10652;BME280;5374;42.742;23.266;2023-06-24T11:49:55;95334.56;;;35.13;35.83
10652;BME280;5374;42.742;23.266;2023-06-24T11:52:45;95325.84;;;35.18;34.79
10652;BME280;5374;42.742;23.266;2023-06-24T11:55:35;95320.56;;;35.35;33.69
10652;BME280;5374;42.742;23.266;2023-06-24T11:58:23;95309.69;;;35.51;33.33
10652;BME280;5374;42.742;23.266;2023-06-24T12:01:15;95289.72;;;35.40;33.10
10652;BME280;5374;42.742;23.266;2023-06-24T12:04:09;95192.31;;;34.68;33.92
10652;BME280;5374;42.742;23.266;2023-06-24T12:07:02;95282.41;;;35.22;34.01
10652;BME280;5374;42.742;23.266;2023-06-24T12:09:52;95275.19;;;34.98;34.12
10652;BME280;5374;42.742;23.266;2023-06-24T12:12:42;95176.16;;;33.87;35.53
10652;BME280;5374;42.742;23.266;2023-06-24T12:15:29;95227.81;;;34.21;34.99
10652;BME280;5374;42.742;23.266;2023-06-24T12:18:17;95265.41;;;34.49;34.95
10652;BME280;5374;42.742;23.266;2023-06-24T12:21:05;95273.75;;;34.42;34.43
10652;BME280;5374;42.742;23.266;2023-06-24T12:23:52;95289.03;;;34.53;33.46
10652;BME280;5374;42.742;23.266;2023-06-24T12:26:41;95283.25;;;34.37;34.58
10652;BME280;5374;42.742;23.266;2023-06-24T12:29:31;95260.94;;;34.14;35.25
10652;BME280;5374;42.742;23.266;2023-06-24T12:32:19;95271.03;;;33.86;36.19
10652;BME280;5374;42.742;23.266;2023-06-24T12:35:08;95283.94;;;33.96;35.47
10652;BME280;5374;42.742;23.266;2023-06-24T12:37:56;95287.44;;;34.01;35.91
10652;BME280;5374;42.742;23.266;2023-06-24T12:40:43;95275.69;;;33.93;36.57
10652;BME280;5374;42.742;23.266;2023-06-24T12:43:32;95281.25;;;33.86;35.48
10652;BME280;5374;42.742;23.266;2023-06-24T12:46:21;95326.81;;;34.01;35.54
10652;BME280;5374;42.742;23.266;2023-06-24T12:49:13;95344.94;;;33.99;35.89
10652;BME280;5374;42.742;23.266;2023-06-24T12:52:03;95338.28;;;33.92;36.17
10652;BME280;5374;42.742;23.266;2023-06-24T12:54:54;95310.00;;;33.74;35.95
10652;BME280;5374;42.742;23.266;2023-06-24T12:57:43;95329.66;;;33.87;35.40
10652;BME280;5374;42.742;23.266;2023-06-24T13:00:30;95337.53;;;33.88;36.53
10652;BME280;5374;42.742;23.266;2023-06-24T13:03:22;95343.06;;;33.88;37.31
10652;BME280;5374;42.742;23.266;2023-06-24T13:06:09;95303.84;;;33.45;38.83
10652;BME280;5374;42.742;23.266;2023-06-24T13:08:56;95329.09;;;33.37;42.64
10652;BME280;5374;42.742;23.266;2023-06-24T13:11:44;95311.53;;;32.59;46.41
10652;BME280;5374;42.742;23.266;2023-06-24T13:14:31;95330.00;;;32.27;47.50
10652;BME280;5374;42.742;23.266;2023-06-24T13:17:20;95335.84;;;32.08;47.80
10652;BME280;5374;42.742;23.266;2023-06-24T13:20:10;95330.25;;;31.72;47.59
10652;BME280;5374;42.742;23.266;2023-06-24T13:22:57;95321.03;;;31.25;46.78
10652;BME280;5374;42.742;23.266;2023-06-24T13:25:45;95332.06;;;30.67;49.05
10652;BME280;5374;42.742;23.266;2023-06-24T13:28:33;95338.50;;;30.41;48.99
10652;BME280;5374;42.742;23.266;2023-06-24T13:31:20;95335.13;;;29.44;42.96
10652;BME280;5374;42.742;23.266;2023-06-24T13:34:07;95334.25;;;28.53;43.80
10652;BME280;5374;42.742;23.266;2023-06-24T13:36:56;95393.41;;;28.42;45.00
10652;BME280;5374;42.742;23.266;2023-06-24T13:39:44;95437.28;;;28.11;46.71
10652;BME280;5374;42.742;23.266;2023-06-24T13:42:32;95430.34;;;27.55;49.31
10652;BME280;5374;42.742;23.266;2023-06-24T13:45:20;95456.06;;;27.04;53.16
10652;BME280;5374;42.742;23.266;2023-06-24T13:48:10;95427.88;;;26.65;55.86
10652;BME280;5374;42.742;23.266;2023-06-24T13:50:58;95388.44;;;25.99;55.88
10652;BME280;5374;42.742;23.266;2023-06-24T13:53:47;95436.06;;;26.21;55.99
10652;BME280;5374;42.742;23.266;2023-06-24T13:56:36;95365.41;;;25.53;56.00
10652;BME280;5374;42.742;23.266;2023-06-24T13:59:26;95416.41;;;25.84;55.85
10652;BME280;5374;42.742;23.266;2023-06-24T14:02:24;95326.09;;;24.95;55.81
10652;BME280;5374;42.742;23.266;2023-06-24T14:05:13;95374.31;;;25.38;55.58
10652;BME280;5374;42.742;23.266;2023-06-24T14:08:06;95379.97;;;25.33;55.99
10652;BME280;5374;42.742;23.266;2023-06-24T14:10:58;95356.25;;;25.17;54.96
10652;BME280;5374;42.742;23.266;2023-06-24T14:13:51;95369.22;;;25.36;53.21
10652;BME280;5374;42.742;23.266;2023-06-24T14:16:38;95351.41;;;25.39;49.50
10652;BME280;5374;42.742;23.266;2023-06-24T14:19:26;95345.44;;;25.33;49.71
10652;BME280;5374;42.742;23.266;2023-06-24T14:22:16;95323.34;;;25.35;48.21
10652;BME280;5374;42.742;23.266;2023-06-24T14:25:11;95344.59;;;25.45;50.10
10652;BME280;5374;42.742;23.266;2023-06-24T14:27:59;95325.91;;;25.71;49.59
10652;BME280;5374;42.742;23.266;2023-06-24T14:30:47;95310.38;;;26.03;51.70
10652;BME280;5374;42.742;23.266;2023-06-24T14:33:36;95298.44;;;26.23;51.73
10652;BME280;5374;42.742;23.266;2023-06-24T14:36:25;95294.38;;;26.49;50.89
10652;BME280;5374;42.742;23.266;2023-06-24T14:39:14;95312.94;;;26.59;48.22
10652;BME280;5374;42.742;23.266;2023-06-24T14:42:05;95331.69;;;26.80;47.67
10652;BME280;5374;42.742;23.266;2023-06-24T14:44:58;95335.56;;;26.79;48.50
10652;BME280;5374;42.742;23.266;2023-06-24T14:47:47;95342.38;;;27.04;47.38
10652;BME280;5374;42.742;23.266;2023-06-24T14:50:36;95354.28;;;27.15;47.15